createdAt,value
2022-08-08T00:00:50.593Z,95543.81
2022-08-08T00:04:07.135Z,95555.94
2022-08-08T00:07:28.543Z,95557.63
2022-08-08T00:10:28.386Z,95566.91
2022-08-08T00:14:16.781Z,95551.66
2022-08-08T00:16:41.465Z,95565.63
2022-08-08T00:19:46.696Z,95553.44
2022-08-08T00:22:43.102Z,95573.88
2022-08-08T00:25:39.133Z,95544.22
2022-08-08T00:28:47.281Z,95579.94
2022-08-08T00:32:29.127Z,95576.72
2022-08-08T00:35:23.529Z,95582.06
2022-08-08T00:38:32.089Z,95585.22
2022-08-08T00:41:54.502Z,95583.47
2022-08-08T00:45:21.655Z,95571.75
2022-08-08T00:48:34.100Z,95583.22
2022-08-08T00:51:57.254Z,95578.66
2022-08-08T00:55:05.085Z,95579.88
2022-08-08T00:58:04.546Z,95581.28
2022-08-08T01:01:02.652Z,95574.41
2022-08-08T01:04:02.837Z,95572.78
2022-08-08T01:07:06.096Z,95543.75
2022-08-08T01:10:17.614Z,95573.31
2022-08-08T01:13:43.578Z,95561.75
2022-08-08T01:16:57.837Z,95568.88
2022-08-08T01:20:21.878Z,95576.16
2022-08-08T01:24:02.353Z,95575.75
2022-08-08T01:26:48.964Z,95573.56
2022-08-08T01:30:03.366Z,95572.22
2022-08-08T01:33:27.678Z,95561.03
2022-08-08T01:36:48.604Z,95574.63
2022-08-08T01:40:14.716Z,95568.63
2022-08-08T01:43:06.337Z,95546.94
2022-08-08T01:46:32.738Z,95568.63
2022-08-08T01:49:46.401Z,95570.50
2022-08-08T01:53:05.248Z,95568.25
2022-08-08T01:56:30.613Z,95569.44
2022-08-08T01:59:37.858Z,95570.19
2022-08-08T02:03:04.446Z,95561.19
2022-08-08T02:06:02.933Z,95566.31
2022-08-08T02:09:17.486Z,95559.22
2022-08-08T02:12:43.129Z,95568.91
2022-08-08T02:15:34.552Z,95564.75
2022-08-08T02:18:43.423Z,95564.00
2022-08-08T02:22:09.487Z,95565.09
2022-08-08T02:25:47.418Z,95553.34
2022-08-08T02:28:48.381Z,95578.19
2022-08-08T02:32:05.280Z,95573.25
2022-08-08T02:35:08.942Z,95583.72
2022-08-08T02:38:52.506Z,95576.44
2022-08-08T02:41:58.428Z,95554.28
2022-08-08T02:45:53.977Z,95577.19
2022-08-08T02:49:02.133Z,95584.41
2022-08-08T02:52:32.711Z,95565.25
2022-08-08T02:55:37.211Z,95574.97
2022-08-08T02:58:42.380Z,95593.53
2022-08-08T03:01:47.217Z,95577.94
2022-08-08T03:05:04.105Z,95588.50
2022-08-08T03:08:34.215Z,95580.13
2022-08-08T03:12:02.820Z,95593.03
2022-08-08T03:16:01.433Z,95590.09
2022-08-08T03:18:48.993Z,95593.22
2022-08-08T03:21:54.649Z,95599.69
2022-08-08T03:24:46.917Z,95603.88
2022-08-08T03:27:41.860Z,95617.59
2022-08-08T03:30:30.050Z,95615.94
2022-08-08T03:33:54.826Z,95618.34
2022-08-08T03:36:27.909Z,95618.38
2022-08-08T03:39:17.552Z,95607.09
2022-08-08T03:42:26.541Z,95586.31
2022-08-08T03:46:06.494Z,95595.56
2022-08-08T03:49:09.493Z,95614.66
2022-08-08T03:51:51.024Z,95614.63
2022-08-08T03:55:02.279Z,95614.31
2022-08-08T03:58:34.857Z,95612.88
2022-08-08T04:01:23.101Z,95590.28
2022-08-08T04:04:09.137Z,95617.84
2022-08-08T04:07:01.369Z,95603.09
2022-08-08T04:10:00.465Z,95611.53
2022-08-08T04:12:54.836Z,95603.88
2022-08-08T04:15:54.372Z,95613.97
2022-08-08T04:18:48.957Z,95605.53
2022-08-08T04:21:41.223Z,95621.91
2022-08-08T04:24:32.369Z,95605.81
2022-08-08T04:28:02.723Z,95624.63
2022-08-08T04:30:36.671Z,95625.00
2022-08-08T04:33:41.776Z,95629.06
2022-08-08T04:36:29.939Z,95629.88
2022-08-08T04:40:04.391Z,95613.44
2022-08-08T04:42:26.051Z,95626.00
2022-08-08T04:45:12.960Z,95633.09
2022-08-08T04:48:00.896Z,95637.50
2022-08-08T04:50:51.162Z,95621.03
2022-08-08T04:54:37.441Z,95632.81
2022-08-08T04:56:48.923Z,95612.81
2022-08-08T04:59:42.412Z,95632.28
2022-08-08T05:02:30.905Z,95622.69
2022-08-08T05:05:44.246Z,95616.38
2022-08-08T05:08:26.978Z,95624.00
2022-08-08T05:11:24.253Z,95623.47
2022-08-08T05:14:16.278Z,95629.16
2022-08-08T05:17:10.789Z,95623.19
2022-08-08T05:20:09.271Z,95627.59
2022-08-08T05:23:00.943Z,95637.44
2022-08-08T05:25:51.591Z,95634.47
2022-08-08T05:28:56.288Z,95645.38
2022-08-08T05:32:04.905Z,95640.16
2022-08-08T05:34:53.388Z,95643.22
2022-08-08T05:37:58.862Z,95654.44
2022-08-08T05:41:04.540Z,95645.63
2022-08-08T05:44:03.907Z,95637.44
2022-08-08T05:46:53.821Z,95661.47
2022-08-08T05:49:57.308Z,95650.03
2022-08-08T05:52:47.943Z,95662.84
2022-08-08T05:56:07.889Z,95641.47
2022-08-08T05:58:53.911Z,95637.84
2022-08-08T06:01:57.799Z,95642.78
2022-08-08T06:04:54.883Z,95661.06
2022-08-08T06:07:47.249Z,95660.19
2022-08-08T06:10:38.458Z,95642.09
2022-08-08T06:13:30.006Z,95664.59
2022-08-08T06:16:27.286Z,95643.13
2022-08-08T06:19:33.228Z,95674.59
2022-08-08T06:22:36.502Z,95662.16
2022-08-08T12:28:55.064Z,95500.53
2022-08-08T12:31:54.247Z,95500.69
2022-08-08T12:34:43.204Z,95498.84
2022-08-08T12:37:41.444Z,95474.16
2022-08-08T12:40:59.144Z,95500.88
2022-08-08T12:44:00.640Z,95485.50
2022-08-08T12:47:00.934Z,95493.59
2022-08-08T12:49:55.277Z,95496.97
2022-08-08T12:52:42.570Z,95489.16
2022-08-08T12:55:56.464Z,95488.38
2022-08-08T12:58:51.298Z,95477.41
2022-08-08T13:01:38.568Z,95467.59
2022-08-08T13:04:32.792Z,95455.06
2022-08-08T13:07:19.286Z,95462.56
2022-08-08T13:10:32.653Z,95464.06
2022-08-08T13:13:35.352Z,95464.44
2022-08-08T13:16:25.906Z,95441.56
2022-08-08T13:19:17.725Z,95466.34
2022-08-08T13:22:04.619Z,95460.91
2022-08-08T13:24:53.075Z,95467.63
2022-08-08T13:27:39.210Z,95464.91
2022-08-08T13:30:28.231Z,95450.81
2022-08-08T13:33:18.462Z,95453.78
2022-08-08T13:36:06.628Z,95429.72
2022-08-08T13:38:52.659Z,95430.41
2022-08-08T13:41:43.742Z,95446.41
2022-08-08T13:44:36.058Z,95421.75
2022-08-08T13:47:25.740Z,95434.84
2022-08-08T13:50:38.736Z,95428.22
2022-08-08T13:53:31.653Z,95431.25
2022-08-08T13:56:41.534Z,95422.69
2022-08-08T13:59:39.344Z,95429.66
2022-08-08T14:02:32.874Z,95418.97
2022-08-08T14:05:28.143Z,95404.22
2022-08-08T14:08:16.836Z,95415.78
2022-08-08T14:11:17.260Z,95414.75
2022-08-08T14:14:08.504Z,95404.97
2022-08-08T14:16:55.524Z,95403.00
2022-08-08T14:19:57.608Z,95411.34
2022-08-08T14:22:50.703Z,95414.94
2022-08-08T14:25:46.529Z,95403.38
2022-08-08T14:28:50.953Z,95415.06
2022-08-08T14:32:08.789Z,95402.22
2022-08-08T14:34:57.014Z,95395.13
2022-08-08T14:38:00.999Z,95394.31
2022-08-08T14:40:49.859Z,95386.38
2022-08-08T14:44:09.938Z,95384.72
2022-08-08T14:47:01.002Z,95386.69
2022-08-08T14:50:06.433Z,95384.72
2022-08-08T14:52:57.235Z,95382.25
2022-08-08T14:55:43.758Z,95370.00
2022-08-08T14:58:31.263Z,95382.19
2022-08-08T15:01:23.829Z,95378.06
2022-08-08T15:04:14.037Z,95388.91
2022-08-08T15:07:00.006Z,95379.19
2022-08-08T15:09:51.390Z,95371.69
2022-08-08T15:12:39.476Z,95362.00
2022-08-08T15:16:02.885Z,95357.22
2022-08-08T15:18:35.001Z,95365.53
2022-08-08T15:21:21.370Z,95361.53
2022-08-08T15:24:12.589Z,95375.00
2022-08-08T15:27:12.106Z,95376.69
2022-08-08T15:30:08.107Z,95377.16
2022-08-08T15:32:58.278Z,95384.09
2022-08-08T15:35:44.293Z,95392.06
2022-08-08T15:38:30.253Z,95390.06
2022-08-08T15:41:16.159Z,95394.84
2022-08-08T15:44:02.097Z,95396.44
2022-08-08T15:46:50.870Z,95380.28
2022-08-08T15:49:40.822Z,95395.41
2022-08-08T15:52:26.954Z,95381.13
2022-08-08T15:55:13.328Z,95394.19
2022-08-08T15:57:59.904Z,95381.84
2022-08-08T16:00:47.259Z,95386.34
2022-08-08T16:03:36.656Z,95386.63
2022-08-08T16:06:28.878Z,95375.78
2022-08-08T16:13:08.805Z,95368.22
2022-08-08T16:13:15.267Z,95375.94
2022-08-08T16:15:32.544Z,95381.09
2022-08-08T16:18:19.784Z,95385.34
2022-08-08T16:21:20.644Z,95386.66
2022-08-08T16:24:12.693Z,95381.44
2022-08-08T16:26:58.956Z,95391.16
2022-08-08T16:30:13.562Z,95386.03
2022-08-08T16:32:51.922Z,95394.88
2022-08-08T16:35:37.917Z,95398.56
2022-08-08T16:38:26.399Z,95394.06
2022-08-08T16:41:21.152Z,95403.69
2022-08-08T16:44:12.561Z,95412.00
2022-08-08T16:46:59.249Z,95419.66
2022-08-08T16:49:47.666Z,95415.75
2022-08-08T16:55:00.526Z,95418.41
2022-08-08T16:55:52.578Z,95427.09
2022-08-08T16:58:42.687Z,95421.69
2022-08-08T17:01:31.030Z,95428.19
2022-08-08T17:04:21.785Z,95446.09
2022-08-08T17:07:08.527Z,95430.84
2022-08-08T17:09:56.122Z,95438.25
2022-08-08T17:12:47.070Z,95439.97
2022-08-08T17:15:47.597Z,95426.00
2022-08-08T17:18:41.526Z,95443.78
2022-08-08T17:21:36.713Z,95437.81
2022-08-08T17:24:30.243Z,95434.25
2022-08-08T17:27:17.633Z,95443.25
2022-08-08T17:30:08.258Z,95443.56
2022-08-08T17:34:36.523Z,95452.34
2022-08-08T17:36:10.106Z,95450.25
2022-08-08T17:39:05.427Z,95443.06
2022-08-08T17:42:05.412Z,95460.00
2022-08-08T17:44:52.871Z,95457.34
2022-08-08T17:47:40.788Z,95469.69
2022-08-08T17:50:27.426Z,95473.72
2022-08-08T17:53:13.652Z,95477.31
2022-08-08T17:56:06.583Z,95473.19
2022-08-08T17:58:54.178Z,95474.81
2022-08-08T18:01:58.209Z,95497.00
2022-08-08T18:04:50.823Z,95497.00
2022-08-08T18:08:02.690Z,95493.00
2022-08-08T18:10:43.513Z,95514.28
2022-08-08T18:13:29.952Z,95513.75
2022-08-08T18:16:23.602Z,95515.38
2022-08-08T18:19:13.377Z,95519.41
2022-08-08T18:22:02.478Z,95531.69
2022-08-08T18:24:51.373Z,95522.53
2022-08-08T18:27:38.325Z,95534.19
2022-08-08T18:30:29.009Z,95533.50
2022-08-08T18:33:36.420Z,95529.88
2022-08-08T18:36:23.197Z,95540.09
2022-08-08T18:39:11.154Z,95531.75
2022-08-08T18:42:03.784Z,95538.41
2022-08-08T18:44:55.150Z,95544.13
2022-08-08T18:47:42.146Z,95547.91
2022-08-08T18:50:28.368Z,95546.09
2022-08-08T18:53:14.263Z,95533.66
2022-08-08T18:56:02.409Z,95550.72
2022-08-08T18:58:49.382Z,95568.59
2022-08-08T19:02:28.294Z,95577.00
2022-08-08T19:04:43.427Z,95563.41
2022-08-08T19:07:33.540Z,95569.41
2022-08-08T19:10:25.389Z,95558.50
2022-08-08T19:13:20.870Z,95573.91
2022-08-08T19:16:18.393Z,95577.19
2022-08-08T19:19:09.944Z,95574.44
2022-08-08T19:22:00.193Z,95573.09
2022-08-08T19:26:00.122Z,95566.88
2022-08-08T19:27:57.461Z,95566.88
2022-08-08T19:30:51.454Z,95560.16
2022-08-08T19:34:04.691Z,95568.41
2022-08-08T19:36:59.102Z,95569.44
2022-08-08T19:39:46.189Z,95566.19
2022-08-08T19:42:37.178Z,95577.00
2022-08-08T19:45:59.671Z,95572.84
2022-08-08T19:48:31.152Z,95572.31
2022-08-08T19:51:25.155Z,95576.19
2022-08-08T19:54:20.748Z,95580.69
2022-08-08T19:57:08.966Z,95577.72
2022-08-08T19:59:55.915Z,95579.78
2022-08-08T20:02:41.694Z,95583.56
2022-08-08T20:06:14.294Z,95594.78
2022-08-08T20:08:35.245Z,95599.06
2022-08-08T20:11:22.035Z,95596.94
2022-08-08T20:14:13.310Z,95599.72
2022-08-08T20:17:14.709Z,95581.63
2022-08-08T20:20:19.605Z,95591.50
2022-08-08T20:23:12.260Z,95590.31
2022-08-08T20:26:02.281Z,95601.31
2022-08-08T20:28:51.023Z,95607.97
2022-08-08T20:32:07.336Z,95594.66
2022-08-08T20:34:47.972Z,95600.16
2022-08-08T20:37:53.166Z,95601.28
2022-08-08T20:40:41.874Z,95608.53
2022-08-08T20:43:43.109Z,95613.81
2022-08-08T20:46:30.454Z,95595.97
2022-08-08T20:49:16.429Z,95603.13
2022-08-08T20:52:03.045Z,95605.63
2022-08-08T20:54:49.760Z,95608.28
2022-08-08T20:57:43.759Z,95612.56
2022-08-08T21:00:36.980Z,95598.38
2022-08-08T21:03:29.854Z,95582.84
2022-08-08T21:06:15.958Z,95618.94
2022-08-08T21:09:02.091Z,95607.13
2022-08-08T21:11:51.741Z,95589.41
2022-08-08T21:14:38.319Z,95607.47
2022-08-08T21:17:25.765Z,95598.38
2022-08-08T21:20:13.741Z,95606.00
2022-08-08T21:22:59.807Z,95609.66
2022-08-08T21:25:49.148Z,95616.06
2022-08-08T21:28:36.408Z,95610.34
2022-08-08T21:31:23.820Z,95613.78
2022-08-08T21:34:30.112Z,95599.56
2022-08-08T21:37:19.080Z,95613.34
2022-08-08T21:40:07.849Z,95612.28
2022-08-08T21:42:54.253Z,95611.78
2022-08-08T21:48:02.124Z,95617.38
2022-08-08T21:48:51.631Z,95622.78
2022-08-08T21:54:32.272Z,95623.38
2022-08-08T21:55:02.356Z,95628.94
2022-08-08T21:58:04.222Z,95641.38
2022-08-08T22:00:54.913Z,95622.25
2022-08-08T22:03:41.708Z,95627.44
2022-08-08T22:06:38.047Z,95633.28
2022-08-08T22:09:27.094Z,95640.44
2022-08-08T22:12:27.277Z,95638.28
2022-08-08T22:15:13.257Z,95640.22
2022-08-08T22:18:01.453Z,95631.16
2022-08-08T22:20:48.165Z,95636.19
2022-08-08T22:23:35.969Z,95617.63
2022-08-08T22:26:29.972Z,95629.34
2022-08-08T22:30:02.273Z,95619.59
2022-08-08T22:32:22.889Z,95627.25
2022-08-08T22:35:08.997Z,95631.19
2022-08-08T22:37:58.261Z,95629.56
2022-08-08T22:40:48.224Z,95628.94
2022-08-08T22:44:02.785Z,95629.56
2022-08-08T22:46:41.433Z,95633.41
2022-08-08T22:49:31.032Z,95620.91
2022-08-08T22:52:25.960Z,95632.94
2022-08-08T22:55:12.140Z,95631.97
2022-08-08T22:57:57.952Z,95632.47
2022-08-08T23:00:54.424Z,95638.50
2022-08-08T23:03:53.498Z,95641.53
2022-08-08T23:06:40.821Z,95622.75
2022-08-08T23:09:30.743Z,95636.38
2022-08-08T23:12:40.004Z,95642.44
2022-08-08T23:16:39.188Z,95617.38
2022-08-08T23:18:29.101Z,95636.00
2022-08-08T23:21:15.669Z,95637.72
2022-08-08T23:24:01.727Z,95628.13
2022-08-08T23:26:55.613Z,95636.13
2022-08-08T23:29:42.949Z,95633.91
2022-08-08T23:32:41.667Z,95644.09
2022-08-08T23:35:34.457Z,95630.69
2022-08-08T23:38:41.594Z,95616.53
2022-08-08T23:41:30.934Z,95627.81
2022-08-08T23:44:32.455Z,95628.09
2022-08-08T23:49:00.670Z,95645.63
2022-08-08T23:50:30.685Z,95640.72
2022-08-08T23:53:17.008Z,95637.28
2022-08-08T23:56:31.930Z,95634.16
2022-08-08T23:59:19.837Z,95635.31
